sensor_id;sensor_type;location;lat;lon;timestamp;P1;durP1;ratioP1;P2;durP2;ratioP2
23470;SDS011;11908;50.806;4.424;2022-12-10T00:00:51;51.70;;;27.85;;
23470;SDS011;11908;50.806;4.424;2022-12-10T00:03:16;50.85;;;26.02;;
23470;SDS011;11908;50.806;4.424;2022-12-10T00:05:42;51.50;;;27.08;;
23470;SDS011;11908;50.806;4.424;2022-12-10T00:08:08;54.65;;;26.15;;
23470;SDS011;11908;50.806;4.424;2022-12-10T00:10:33;53.65;;;26.23;;
23470;SDS011;11908;50.806;4.424;2022-12-10T00:12:59;51.13;;;25.48;;
23470;SDS011;11908;50.806;4.424;2022-12-10T00:15:24;51.55;;;26.58;;
23470;SDS011;11908;50.806;4.424;2022-12-10T00:17:50;51.35;;;27.10;;
23470;SDS011;11908;50.806;4.424;2022-12-10T00:20:16;49.83;;;25.88;;
23470;SDS011;11908;50.806;4.424;2022-12-10T00:22:42;52.50;;;27.02;;
23470;SDS011;11908;50.806;4.424;2022-12-10T00:25:07;48.50;;;24.63;;
23470;SDS011;11908;50.806;4.424;2022-12-10T00:27:33;48.80;;;24.40;;
23470;SDS011;11908;50.806;4.424;2022-12-10T00:29:58;51.97;;;25.80;;
23470;SDS011;11908;50.806;4.424;2022-12-10T00:32:24;48.60;;;24.95;;
23470;SDS011;11908;50.806;4.424;2022-12-10T00:34:50;45.97;;;24.52;;
23470;SDS011;11908;50.806;4.424;2022-12-10T00:37:17;45.58;;;23.83;;
23470;SDS011;11908;50.806;4.424;2022-12-10T00:39:42;50.42;;;25.15;;
23470;SDS011;11908;50.806;4.424;2022-12-10T00:42:08;48.60;;;25.63;;
23470;SDS011;11908;50.806;4.424;2022-12-10T00:44:33;47.95;;;23.63;;
23470;SDS011;11908;50.806;4.424;2022-12-10T00:46:59;47.80;;;25.13;;
23470;SDS011;11908;50.806;4.424;2022-12-10T00:49:25;45.53;;;23.52;;
23470;SDS011;11908;50.806;4.424;2022-12-10T00:51:50;50.58;;;24.83;;
23470;SDS011;11908;50.806;4.424;2022-12-10T00:54:16;42.85;;;23.42;;
23470;SDS011;11908;50.806;4.424;2022-12-10T00:56:42;43.92;;;22.55;;
23470;SDS011;11908;50.806;4.424;2022-12-10T00:59:07;43.60;;;22.15;;
23470;SDS011;11908;50.806;4.424;2022-12-10T01:01:35;43.70;;;22.80;;
23470;SDS011;11908;50.806;4.424;2022-12-10T01:04:03;44.00;;;22.83;;
23470;SDS011;11908;50.806;4.424;2022-12-10T01:06:55;38.58;;;21.70;;
23470;SDS011;11908;50.806;4.424;2022-12-10T01:09:22;45.17;;;24.33;;
23470;SDS011;11908;50.806;4.424;2022-12-10T01:11:50;46.97;;;22.92;;
23470;SDS011;11908;50.806;4.424;2022-12-10T01:14:20;47.97;;;24.25;;
23470;SDS011;11908;50.806;4.424;2022-12-10T01:16:48;43.40;;;22.90;;
23470;SDS011;11908;50.806;4.424;2022-12-10T01:19:15;48.35;;;25.42;;
23470;SDS011;11908;50.806;4.424;2022-12-10T01:21:41;52.03;;;24.75;;
23470;SDS011;11908;50.806;4.424;2022-12-10T01:24:06;45.25;;;23.70;;
23470;SDS011;11908;50.806;4.424;2022-12-10T01:26:33;48.40;;;25.40;;
23470;SDS011;11908;50.806;4.424;2022-12-10T01:29:00;52.35;;;24.10;;
23470;SDS011;11908;50.806;4.424;2022-12-10T01:31:27;51.42;;;24.90;;
23470;SDS011;11908;50.806;4.424;2022-12-10T01:33:54;50.78;;;25.60;;
23470;SDS011;11908;50.806;4.424;2022-12-10T01:36:24;51.50;;;25.73;;
23470;SDS011;11908;50.806;4.424;2022-12-10T01:38:52;50.30;;;25.45;;
23470;SDS011;11908;50.806;4.424;2022-12-10T01:41:20;53.97;;;26.88;;
23470;SDS011;11908;50.806;4.424;2022-12-10T01:43:53;50.42;;;25.65;;
23470;SDS011;11908;50.806;4.424;2022-12-10T01:46:24;54.88;;;26.67;;
23470;SDS011;11908;50.806;4.424;2022-12-10T01:48:59;51.50;;;25.85;;
23470;SDS011;11908;50.806;4.424;2022-12-10T01:51:27;54.25;;;28.02;;
23470;SDS011;11908;50.806;4.424;2022-12-10T01:53:54;61.70;;;28.23;;
23470;SDS011;11908;50.806;4.424;2022-12-10T01:56:21;54.35;;;27.17;;
23470;SDS011;11908;50.806;4.424;2022-12-10T01:58:48;55.40;;;26.88;;
23470;SDS011;11908;50.806;4.424;2022-12-10T02:07:09;54.17;;;28.90;;
23470;SDS011;11908;50.806;4.424;2022-12-10T02:09:47;55.20;;;27.92;;
23470;SDS011;11908;50.806;4.424;2022-12-10T02:15:11;62.10;;;28.48;;
23470;SDS011;11908;50.806;4.424;2022-12-10T02:17:42;56.78;;;29.02;;
23470;SDS011;11908;50.806;4.424;2022-12-10T02:21:12;58.65;;;29.60;;
23470;SDS011;11908;50.806;4.424;2022-12-10T02:23:21;58.15;;;28.85;;
23470;SDS011;11908;50.806;4.424;2022-12-10T02:26:11;53.65;;;28.73;;
23470;SDS011;11908;50.806;4.424;2022-12-10T02:31:28;54.83;;;29.25;;
23470;SDS011;11908;50.806;4.424;2022-12-10T02:33:57;54.03;;;27.65;;
23470;SDS011;11908;50.806;4.424;2022-12-10T02:36:25;55.30;;;30.25;;
23470;SDS011;11908;50.806;4.424;2022-12-10T02:38:55;57.88;;;31.08;;
23470;SDS011;11908;50.806;4.424;2022-12-10T02:41:33;58.20;;;29.70;;
23470;SDS011;11908;50.806;4.424;2022-12-10T02:44:02;58.47;;;30.02;;
23470;SDS011;11908;50.806;4.424;2022-12-10T02:46:32;63.00;;;31.60;;
23470;SDS011;11908;50.806;4.424;2022-12-10T02:49:00;64.57;;;31.27;;
23470;SDS011;11908;50.806;4.424;2022-12-10T02:51:28;58.28;;;29.67;;
23470;SDS011;11908;50.806;4.424;2022-12-10T02:54:01;62.65;;;31.98;;
23470;SDS011;11908;50.806;4.424;2022-12-10T03:04:46;66.68;;;34.88;;
23470;SDS011;11908;50.806;4.424;2022-12-10T03:10:24;65.30;;;32.50;;
23470;SDS011;11908;50.806;4.424;2022-12-10T03:13:07;68.63;;;32.58;;
23470;SDS011;11908;50.806;4.424;2022-12-10T03:15:35;73.55;;;33.25;;
23470;SDS011;11908;50.806;4.424;2022-12-10T03:18:04;65.63;;;30.95;;
23470;SDS011;11908;50.806;4.424;2022-12-10T03:20:33;68.20;;;32.85;;
23470;SDS011;11908;50.806;4.424;2022-12-10T03:23:02;73.82;;;34.38;;
23470;SDS011;11908;50.806;4.424;2022-12-10T03:25:30;70.78;;;33.88;;
23470;SDS011;11908;50.806;4.424;2022-12-10T03:27:58;72.38;;;34.25;;
23470;SDS011;11908;50.806;4.424;2022-12-10T03:30:25;77.75;;;35.67;;
23470;SDS011;11908;50.806;4.424;2022-12-10T03:32:52;78.15;;;37.58;;
23470;SDS011;11908;50.806;4.424;2022-12-10T03:35:19;74.93;;;35.50;;
23470;SDS011;11908;50.806;4.424;2022-12-10T03:37:47;80.15;;;38.78;;
23470;SDS011;11908;50.806;4.424;2022-12-10T03:40:14;84.03;;;39.15;;
23470;SDS011;11908;50.806;4.424;2022-12-10T03:42:42;81.72;;;39.80;;
23470;SDS011;11908;50.806;4.424;2022-12-10T03:45:08;83.80;;;37.55;;
23470;SDS011;11908;50.806;4.424;2022-12-10T03:47:34;85.10;;;40.58;;
23470;SDS011;11908;50.806;4.424;2022-12-10T03:50:00;78.13;;;38.95;;
23470;SDS011;11908;50.806;4.424;2022-12-10T03:52:26;89.47;;;42.05;;
23470;SDS011;11908;50.806;4.424;2022-12-10T03:54:51;91.05;;;42.20;;
23470;SDS011;11908;50.806;4.424;2022-12-10T03:57:17;97.53;;;42.05;;
23470;SDS011;11908;50.806;4.424;2022-12-10T03:59:43;98.78;;;44.20;;
23470;SDS011;11908;50.806;4.424;2022-12-10T04:02:09;91.32;;;43.60;;
23470;SDS011;11908;50.806;4.424;2022-12-10T04:04:35;102.75;;;44.85;;
23470;SDS011;11908;50.806;4.424;2022-12-10T04:07:01;104.93;;;47.65;;
23470;SDS011;11908;50.806;4.424;2022-12-10T04:09:27;98.82;;;43.85;;
23470;SDS011;11908;50.806;4.424;2022-12-10T04:11:59;102.45;;;45.38;;
23470;SDS011;11908;50.806;4.424;2022-12-10T04:14:25;93.38;;;43.85;;
23470;SDS011;11908;50.806;4.424;2022-12-10T04:17:10;101.68;;;46.10;;
23470;SDS011;11908;50.806;4.424;2022-12-10T04:19:36;107.05;;;46.33;;
23470;SDS011;11908;50.806;4.424;2022-12-10T04:22:02;107.00;;;43.95;;
23470;SDS011;11908;50.806;4.424;2022-12-10T04:24:47;97.07;;;44.08;;
23470;SDS011;11908;50.806;4.424;2022-12-10T04:27:51;106.13;;;47.38;;
23470;SDS011;11908;50.806;4.424;2022-12-10T04:30:17;99.55;;;46.42;;
23470;SDS011;11908;50.806;4.424;2022-12-10T04:32:44;98.97;;;42.70;;
23470;SDS011;11908;50.806;4.424;2022-12-10T04:35:09;94.20;;;42.25;;
23470;SDS011;11908;50.806;4.424;2022-12-10T04:37:36;91.75;;;40.75;;
23470;SDS011;11908;50.806;4.424;2022-12-10T04:40:02;95.28;;;42.35;;
23470;SDS011;11908;50.806;4.424;2022-12-10T04:42:28;89.95;;;40.45;;
23470;SDS011;11908;50.806;4.424;2022-12-10T04:44:54;97.43;;;41.47;;
23470;SDS011;11908;50.806;4.424;2022-12-10T04:47:19;112.72;;;40.30;;
23470;SDS011;11908;50.806;4.424;2022-12-10T04:49:45;87.10;;;37.90;;
23470;SDS011;11908;50.806;4.424;2022-12-10T04:52:12;84.82;;;38.85;;
23470;SDS011;11908;50.806;4.424;2022-12-10T04:54:39;95.35;;;39.15;;
23470;SDS011;11908;50.806;4.424;2022-12-10T04:57:06;128.20;;;36.75;;
23470;SDS011;11908;50.806;4.424;2022-12-10T04:59:32;75.03;;;34.60;;
23470;SDS011;11908;50.806;4.424;2022-12-10T05:01:58;78.55;;;36.13;;
23470;SDS011;11908;50.806;4.424;2022-12-10T05:04:24;83.53;;;35.42;;
23470;SDS011;11908;50.806;4.424;2022-12-10T05:06:49;79.35;;;35.75;;
23470;SDS011;11908;50.806;4.424;2022-12-10T05:09:15;105.72;;;35.10;;
23470;SDS011;11908;50.806;4.424;2022-12-10T05:11:41;88.03;;;34.47;;
23470;SDS011;11908;50.806;4.424;2022-12-10T05:14:10;83.35;;;33.72;;
23470;SDS011;11908;50.806;4.424;2022-12-10T05:16:36;87.28;;;33.58;;
23470;SDS011;11908;50.806;4.424;2022-12-10T05:19:02;106.35;;;36.03;;
23470;SDS011;11908;50.806;4.424;2022-12-10T05:21:28;84.85;;;35.03;;
23470;SDS011;11908;50.806;4.424;2022-12-10T05:24:13;94.18;;;36.17;;
23470;SDS011;11908;50.806;4.424;2022-12-10T05:26:40;89.78;;;35.25;;
23470;SDS011;11908;50.806;4.424;2022-12-10T05:29:06;96.10;;;36.00;;
23470;SDS011;11908;50.806;4.424;2022-12-10T05:31:31;95.68;;;33.78;;
23470;SDS011;11908;50.806;4.424;2022-12-10T05:33:57;112.47;;;34.67;;
23470;SDS011;11908;50.806;4.424;2022-12-10T05:36:25;78.85;;;32.50;;
23470;SDS011;11908;50.806;4.424;2022-12-10T05:38:53;92.05;;;33.60;;
23470;SDS011;11908;50.806;4.424;2022-12-10T05:41:21;80.75;;;34.63;;
23470;SDS011;11908;50.806;4.424;2022-12-10T05:43:49;84.97;;;34.38;;
23470;SDS011;11908;50.806;4.424;2022-12-10T05:46:17;103.07;;;35.28;;
23470;SDS011;11908;50.806;4.424;2022-12-10T05:48:44;84.70;;;33.55;;
23470;SDS011;11908;50.806;4.424;2022-12-10T05:51:11;121.10;;;31.88;;
23470;SDS011;11908;50.806;4.424;2022-12-10T05:53:39;74.30;;;32.40;;
23470;SDS011;11908;50.806;4.424;2022-12-10T05:56:06;76.95;;;30.52;;
23470;SDS011;11908;50.806;4.424;2022-12-10T05:58:34;80.13;;;31.65;;
23470;SDS011;11908;50.806;4.424;2022-12-10T06:01:05;88.93;;;31.40;;
23470;SDS011;11908;50.806;4.424;2022-12-10T06:03:35;72.40;;;28.45;;
23470;SDS011;11908;50.806;4.424;2022-12-10T06:06:02;78.38;;;31.45;;
23470;SDS011;11908;50.806;4.424;2022-12-10T06:08:28;111.05;;;32.28;;
23470;SDS011;11908;50.806;4.424;2022-12-10T06:10:53;83.05;;;31.98;;
23470;SDS011;11908;50.806;4.424;2022-12-10T06:13:19;96.72;;;32.13;;
23470;SDS011;11908;50.806;4.424;2022-12-10T06:15:45;76.70;;;31.58;;
23470;SDS011;11908;50.806;4.424;2022-12-10T06:18:11;97.63;;;32.10;;
23470;SDS011;11908;50.806;4.424;2022-12-10T06:20:37;87.25;;;29.88;;
23470;SDS011;11908;50.806;4.424;2022-12-10T06:23:04;94.65;;;30.52;;
23470;SDS011;11908;50.806;4.424;2022-12-10T06:25:30;85.55;;;30.30;;
23470;SDS011;11908;50.806;4.424;2022-12-10T06:27:55;70.10;;;29.02;;
23470;SDS011;11908;50.806;4.424;2022-12-10T06:30:21;88.30;;;32.00;;
23470;SDS011;11908;50.806;4.424;2022-12-10T06:32:47;69.68;;;29.92;;
23470;SDS011;11908;50.806;4.424;2022-12-10T06:35:12;80.10;;;31.40;;
23470;SDS011;11908;50.806;4.424;2022-12-10T06:37:38;74.85;;;28.98;;
23470;SDS011;11908;50.806;4.424;2022-12-10T06:40:04;72.38;;;29.38;;
23470;SDS011;11908;50.806;4.424;2022-12-10T06:42:30;73.40;;;29.52;;
23470;SDS011;11908;50.806;4.424;2022-12-10T06:44:56;99.28;;;32.03;;
23470;SDS011;11908;50.806;4.424;2022-12-10T06:47:22;96.43;;;29.88;;
23470;SDS011;11908;50.806;4.424;2022-12-10T06:49:48;77.07;;;30.55;;
23470;SDS011;11908;50.806;4.424;2022-12-10T06:52:13;68.25;;;28.63;;
23470;SDS011;11908;50.806;4.424;2022-12-10T06:54:39;78.88;;;27.33;;
23470;SDS011;11908;50.806;4.424;2022-12-10T06:57:05;72.85;;;28.77;;
23470;SDS011;11908;50.806;4.424;2022-12-10T06:59:31;66.95;;;26.33;;
23470;SDS011;11908;50.806;4.424;2022-12-10T07:01:57;63.78;;;26.83;;
23470;SDS011;11908;50.806;4.424;2022-12-10T07:04:23;73.78;;;26.95;;
23470;SDS011;11908;50.806;4.424;2022-12-10T07:06:49;60.50;;;26.38;;
23470;SDS011;11908;50.806;4.424;2022-12-10T07:09:14;61.35;;;25.83;;
23470;SDS011;11908;50.806;4.424;2022-12-10T07:11:41;72.97;;;25.98;;
23470;SDS011;11908;50.806;4.424;2022-12-10T07:14:06;75.03;;;27.52;;
23470;SDS011;11908;50.806;4.424;2022-12-10T07:16:34;70.45;;;27.60;;
23470;SDS011;11908;50.806;4.424;2022-12-10T07:19:00;73.18;;;25.88;;
23470;SDS011;11908;50.806;4.424;2022-12-10T07:21:31;60.08;;;25.27;;
23470;SDS011;11908;50.806;4.424;2022-12-10T07:24:02;100.93;;;26.90;;
23470;SDS011;11908;50.806;4.424;2022-12-10T07:26:30;79.53;;;26.92;;
23470;SDS011;11908;50.806;4.424;2022-12-10T07:28:58;64.32;;;26.88;;
23470;SDS011;11908;50.806;4.424;2022-12-10T07:31:24;61.22;;;26.70;;
23470;SDS011;11908;50.806;4.424;2022-12-10T07:33:50;86.53;;;27.98;;
23470;SDS011;11908;50.806;4.424;2022-12-10T07:36:17;69.28;;;26.23;;
23470;SDS011;11908;50.806;4.424;2022-12-10T07:38:43;77.65;;;26.15;;
23470;SDS011;11908;50.806;4.424;2022-12-10T07:41:10;52.45;;;23.83;;
23470;SDS011;11908;50.806;4.424;2022-12-10T07:43:38;70.88;;;25.52;;
23470;SDS011;11908;50.806;4.424;2022-12-10T07:46:07;56.20;;;24.75;;
23470;SDS011;11908;50.806;4.424;2022-12-10T07:48:35;59.55;;;26.08;;
23470;SDS011;11908;50.806;4.424;2022-12-10T07:51:02;60.80;;;25.85;;
23470;SDS011;11908;50.806;4.424;2022-12-10T07:53:28;62.58;;;27.02;;
23470;SDS011;11908;50.806;4.424;2022-12-10T07:55:54;60.92;;;25.13;;
23470;SDS011;11908;50.806;4.424;2022-12-10T07:58:20;68.40;;;24.70;;
23470;SDS011;11908;50.806;4.424;2022-12-10T08:00:45;74.63;;;25.20;;
23470;SDS011;11908;50.806;4.424;2022-12-10T08:03:11;90.55;;;25.23;;
23470;SDS011;11908;50.806;4.424;2022-12-10T08:05:37;59.85;;;24.90;;
23470;SDS011;11908;50.806;4.424;2022-12-10T08:08:03;80.03;;;26.00;;
23470;SDS011;11908;50.806;4.424;2022-12-10T08:10:29;68.70;;;27.33;;
23470;SDS011;11908;50.806;4.424;2022-12-10T08:12:54;63.55;;;25.50;;
23470;SDS011;11908;50.806;4.424;2022-12-10T08:15:20;67.22;;;28.15;;
23470;SDS011;11908;50.806;4.424;2022-12-10T08:17:46;77.57;;;27.60;;
23470;SDS011;11908;50.806;4.424;2022-12-10T08:20:11;64.60;;;27.60;;
23470;SDS011;11908;50.806;4.424;2022-12-10T08:22:37;107.72;;;30.23;;
23470;SDS011;11908;50.806;4.424;2022-12-10T08:25:04;103.72;;;29.15;;
23470;SDS011;11908;50.806;4.424;2022-12-10T08:27:30;139.05;;;29.73;;
23470;SDS011;11908;50.806;4.424;2022-12-10T08:29:55;109.50;;;30.90;;
23470;SDS011;11908;50.806;4.424;2022-12-10T08:32:21;79.75;;;29.65;;
23470;SDS011;11908;50.806;4.424;2022-12-10T08:34:47;95.53;;;31.27;;
23470;SDS011;11908;50.806;4.424;2022-12-10T08:37:13;85.78;;;32.47;;
23470;SDS011;11908;50.806;4.424;2022-12-10T08:39:39;119.00;;;32.70;;
23470;SDS011;11908;50.806;4.424;2022-12-10T08:42:05;90.05;;;32.92;;
23470;SDS011;11908;50.806;4.424;2022-12-10T08:44:30;84.43;;;32.20;;
23470;SDS011;11908;50.806;4.424;2022-12-10T08:46:56;102.47;;;33.88;;
23470;SDS011;11908;50.806;4.424;2022-12-10T08:49:22;86.32;;;32.20;;
23470;SDS011;11908;50.806;4.424;2022-12-10T08:51:48;82.22;;;32.55;;
23470;SDS011;11908;50.806;4.424;2022-12-10T08:54:13;83.72;;;34.95;;
23470;SDS011;11908;50.806;4.424;2022-12-10T08:56:39;85.20;;;33.53;;
23470;SDS011;11908;50.806;4.424;2022-12-10T08:59:05;88.88;;;32.88;;
23470;SDS011;11908;50.806;4.424;2022-12-10T09:01:31;70.22;;;31.88;;
23470;SDS011;11908;50.806;4.424;2022-12-10T09:03:57;92.15;;;32.95;;
23470;SDS011;11908;50.806;4.424;2022-12-10T09:06:23;64.85;;;29.58;;
23470;SDS011;11908;50.806;4.424;2022-12-10T09:08:49;85.53;;;30.48;;
23470;SDS011;11908;50.806;4.424;2022-12-10T09:13:45;61.80;;;27.88;;
23470;SDS011;11908;50.806;4.424;2022-12-10T09:16:11;68.13;;;29.65;;
23470;SDS011;11908;50.806;4.424;2022-12-10T09:18:37;75.60;;;31.10;;
23470;SDS011;11908;50.806;4.424;2022-12-10T09:21:07;72.10;;;28.65;;
23470;SDS011;11908;50.806;4.424;2022-12-10T09:23:33;60.88;;;29.63;;
23470;SDS011;11908;50.806;4.424;2022-12-10T09:25:59;66.70;;;29.63;;
23470;SDS011;11908;50.806;4.424;2022-12-10T09:28:25;73.95;;;30.58;;
23470;SDS011;11908;50.806;4.424;2022-12-10T09:30:55;70.80;;;29.80;;
23470;SDS011;11908;50.806;4.424;2022-12-10T09:33:22;69.00;;;29.90;;
23470;SDS011;11908;50.806;4.424;2022-12-10T09:35:47;78.73;;;31.97;;
23470;SDS011;11908;50.806;4.424;2022-12-10T09:38:13;71.68;;;31.75;;
23470;SDS011;11908;50.806;4.424;2022-12-10T09:40:41;71.13;;;30.75;;
23470;SDS011;11908;50.806;4.424;2022-12-10T09:46:00;55.37;;;25.27;;
23470;SDS011;11908;50.806;4.424;2022-12-10T09:51:21;73.63;;;32.05;;
23470;SDS011;11908;50.806;4.424;2022-12-10T09:53:51;65.55;;;31.05;;
23470;SDS011;11908;50.806;4.424;2022-12-10T09:56:25;72.45;;;32.58;;
23470;SDS011;11908;50.806;4.424;2022-12-10T09:58:55;82.80;;;35.03;;
23470;SDS011;11908;50.806;4.424;2022-12-10T10:01:23;70.45;;;32.40;;
23470;SDS011;11908;50.806;4.424;2022-12-10T10:03:52;70.20;;;32.08;;
23470;SDS011;11908;50.806;4.424;2022-12-10T10:06:18;73.43;;;32.83;;
23470;SDS011;11908;50.806;4.424;2022-12-10T10:08:46;74.75;;;32.58;;
23470;SDS011;11908;50.806;4.424;2022-12-10T10:11:22;67.53;;;29.75;;
23470;SDS011;11908;50.806;4.424;2022-12-10T10:13:53;74.15;;;31.45;;
23470;SDS011;11908;50.806;4.424;2022-12-10T10:19:03;67.03;;;29.33;;
23470;SDS011;11908;50.806;4.424;2022-12-10T10:21:40;62.88;;;30.17;;
23470;SDS011;11908;50.806;4.424;2022-12-10T10:24:12;66.07;;;27.55;;
23470;SDS011;11908;50.806;4.424;2022-12-10T10:26:41;62.53;;;28.65;;
23470;SDS011;11908;50.806;4.424;2022-12-10T10:29:08;59.28;;;28.05;;
23470;SDS011;11908;50.806;4.424;2022-12-10T10:31:38;64.93;;;28.80;;
23470;SDS011;11908;50.806;4.424;2022-12-10T10:34:11;54.85;;;25.48;;
23470;SDS011;11908;50.806;4.424;2022-12-10T10:36:43;52.28;;;23.08;;
23470;SDS011;11908;50.806;4.424;2022-12-10T10:39:10;53.67;;;24.33;;
23470;SDS011;11908;50.806;4.424;2022-12-10T10:41:51;56.90;;;24.55;;
23470;SDS011;11908;50.806;4.424;2022-12-10T10:44:19;57.30;;;25.33;;
23470;SDS011;11908;50.806;4.424;2022-12-10T10:46:50;52.20;;;24.33;;
23470;SDS011;11908;50.806;4.424;2022-12-10T10:49:23;53.78;;;24.02;;
23470;SDS011;11908;50.806;4.424;2022-12-10T10:51:51;50.25;;;22.48;;
23470;SDS011;11908;50.806;4.424;2022-12-10T10:59:40;53.28;;;24.08;;
23470;SDS011;11908;50.806;4.424;2022-12-10T11:07:21;53.58;;;23.77;;
23470;SDS011;11908;50.806;4.424;2022-12-10T11:10:15;60.25;;;25.92;;
23470;SDS011;11908;50.806;4.424;2022-12-10T11:12:44;58.60;;;27.13;;
23470;SDS011;11908;50.806;4.424;2022-12-10T11:17:47;54.13;;;24.15;;
23470;SDS011;11908;50.806;4.424;2022-12-10T11:20:19;57.45;;;22.92;;
23470;SDS011;11908;50.806;4.424;2022-12-10T11:22:51;49.38;;;23.52;;
23470;SDS011;11908;50.806;4.424;2022-12-10T11:25:29;55.60;;;26.63;;
23470;SDS011;11908;50.806;4.424;2022-12-10T11:36:29;47.60;;;22.77;;
23470;SDS011;11908;50.806;4.424;2022-12-10T11:52:57;51.90;;;22.55;;
23470;SDS011;11908;50.806;4.424;2022-12-10T12:06:44;49.53;;;22.70;;
23470;SDS011;11908;50.806;4.424;2022-12-10T12:09:34;53.90;;;23.75;;
23470;SDS011;11908;50.806;4.424;2022-12-10T12:15:13;56.67;;;24.95;;
23470;SDS011;11908;50.806;4.424;2022-12-10T12:17:52;59.60;;;25.70;;
23470;SDS011;11908;50.806;4.424;2022-12-10T12:22:58;56.30;;;25.13;;
23470;SDS011;11908;50.806;4.424;2022-12-10T12:25:41;57.53;;;25.60;;
23470;SDS011;11908;50.806;4.424;2022-12-10T12:30:45;56.53;;;25.70;;
23470;SDS011;11908;50.806;4.424;2022-12-10T12:33:24;54.72;;;25.65;;
23470;SDS011;11908;50.806;4.424;2022-12-10T12:36:02;60.58;;;26.63;;
23470;SDS011;11908;50.806;4.424;2022-12-10T12:38:35;63.35;;;27.30;;
23470;SDS011;11908;50.806;4.424;2022-12-10T12:46:55;61.90;;;24.58;;
23470;SDS011;11908;50.806;4.424;2022-12-10T12:49:24;59.75;;;25.85;;
23470;SDS011;11908;50.806;4.424;2022-12-10T12:52:04;63.80;;;26.35;;
23470;SDS011;11908;50.806;4.424;2022-12-10T12:54:31;58.88;;;27.70;;
23470;SDS011;11908;50.806;4.424;2022-12-10T12:57:03;54.22;;;23.92;;
23470;SDS011;11908;50.806;4.424;2022-12-10T13:02:21;58.45;;;26.02;;
23470;SDS011;11908;50.806;4.424;2022-12-10T13:05:12;60.58;;;25.90;;
23470;SDS011;11908;50.806;4.424;2022-12-10T13:08:14;57.42;;;23.88;;
23470;SDS011;11908;50.806;4.424;2022-12-10T13:10:53;54.20;;;23.83;;
23470;SDS011;11908;50.806;4.424;2022-12-10T13:15:53;55.80;;;24.10;;
23470;SDS011;11908;50.806;4.424;2022-12-10T13:18:21;51.90;;;24.23;;
23470;SDS011;11908;50.806;4.424;2022-12-10T13:24:05;50.92;;;23.80;;
23470;SDS011;11908;50.806;4.424;2022-12-10T13:26:33;47.58;;;23.23;;
23470;SDS011;11908;50.806;4.424;2022-12-10T13:29:13;54.05;;;24.48;;
23470;SDS011;11908;50.806;4.424;2022-12-10T13:31:57;55.47;;;26.60;;
23470;SDS011;11908;50.806;4.424;2022-12-10T13:34:32;50.20;;;21.23;;
23470;SDS011;11908;50.806;4.424;2022-12-10T13:44:50;52.00;;;22.75;;
23470;SDS011;11908;50.806;4.424;2022-12-10T13:49:56;46.65;;;20.73;;
23470;SDS011;11908;50.806;4.424;2022-12-10T13:52:31;47.72;;;20.33;;
23470;SDS011;11908;50.806;4.424;2022-12-10T13:57:46;54.47;;;20.23;;
23470;SDS011;11908;50.806;4.424;2022-12-10T14:00:21;47.70;;;20.58;;
23470;SDS011;11908;50.806;4.424;2022-12-10T14:08:06;52.00;;;21.85;;
23470;SDS011;11908;50.806;4.424;2022-12-10T14:10:38;53.63;;;22.92;;
23470;SDS011;11908;50.806;4.424;2022-12-10T14:13:05;49.88;;;21.52;;
23470;SDS011;11908;50.806;4.424;2022-12-10T14:15:31;48.90;;;20.92;;
23470;SDS011;11908;50.806;4.424;2022-12-10T14:18:03;50.33;;;21.85;;
23470;SDS011;11908;50.806;4.424;2022-12-10T14:20:37;49.85;;;21.80;;
23470;SDS011;11908;50.806;4.424;2022-12-10T14:23:30;50.05;;;21.33;;
23470;SDS011;11908;50.806;4.424;2022-12-10T14:26:03;50.97;;;21.55;;
23470;SDS011;11908;50.806;4.424;2022-12-10T14:28:38;47.90;;;23.13;;
23470;SDS011;11908;50.806;4.424;2022-12-10T14:31:16;50.63;;;23.23;;
23470;SDS011;11908;50.806;4.424;2022-12-10T14:33:49;50.55;;;21.85;;
23470;SDS011;11908;50.806;4.424;2022-12-10T14:36:20;49.58;;;21.42;;
23470;SDS011;11908;50.806;4.424;2022-12-10T14:38:50;51.50;;;23.15;;
23470;SDS011;11908;50.806;4.424;2022-12-10T14:41:17;51.90;;;22.98;;
23470;SDS011;11908;50.806;4.424;2022-12-10T14:43:46;50.28;;;22.23;;
23470;SDS011;11908;50.806;4.424;2022-12-10T14:46:21;52.65;;;23.98;;
23470;SDS011;11908;50.806;4.424;2022-12-10T14:48:53;51.25;;;22.88;;
23470;SDS011;11908;50.806;4.424;2022-12-10T14:51:23;47.85;;;21.30;;
23470;SDS011;11908;50.806;4.424;2022-12-10T14:53:51;51.00;;;21.38;;
23470;SDS011;11908;50.806;4.424;2022-12-10T14:56:23;54.03;;;24.02;;
23470;SDS011;11908;50.806;4.424;2022-12-10T15:03:53;52.30;;;23.17;;
23470;SDS011;11908;50.806;4.424;2022-12-10T15:06:19;48.13;;;22.80;;
23470;SDS011;11908;50.806;4.424;2022-12-10T15:08:45;51.40;;;22.17;;
23470;SDS011;11908;50.806;4.424;2022-12-10T15:11:19;52.80;;;23.83;;
23470;SDS011;11908;50.806;4.424;2022-12-10T15:13:46;49.33;;;22.85;;
23470;SDS011;11908;50.806;4.424;2022-12-10T15:16:20;50.63;;;23.17;;
23470;SDS011;11908;50.806;4.424;2022-12-10T15:19:15;52.83;;;23.40;;
23470;SDS011;11908;50.806;4.424;2022-12-10T15:21:44;54.95;;;25.15;;
23470;SDS011;11908;50.806;4.424;2022-12-10T15:24:15;57.20;;;24.83;;
23470;SDS011;11908;50.806;4.424;2022-12-10T15:26:44;59.60;;;24.35;;
23470;SDS011;11908;50.806;4.424;2022-12-10T15:29:15;63.58;;;27.23;;
23470;SDS011;11908;50.806;4.424;2022-12-10T15:32:33;59.67;;;25.00;;
23470;SDS011;11908;50.806;4.424;2022-12-10T15:35:00;59.38;;;25.00;;
23470;SDS011;11908;50.806;4.424;2022-12-10T15:40:00;61.28;;;27.10;;
23470;SDS011;11908;50.806;4.424;2022-12-10T15:42:30;58.42;;;26.38;;
23470;SDS011;11908;50.806;4.424;2022-12-10T15:45:19;60.80;;;26.80;;
23470;SDS011;11908;50.806;4.424;2022-12-10T15:47:45;57.65;;;25.25;;
23470;SDS011;11908;50.806;4.424;2022-12-10T15:50:11;60.17;;;25.55;;
23470;SDS011;11908;50.806;4.424;2022-12-10T15:52:37;56.15;;;26.45;;
23470;SDS011;11908;50.806;4.424;2022-12-10T15:55:03;57.33;;;25.20;;
23470;SDS011;11908;50.806;4.424;2022-12-10T15:57:36;54.17;;;24.80;;
23470;SDS011;11908;50.806;4.424;2022-12-10T16:00:24;55.40;;;24.40;;
23470;SDS011;11908;50.806;4.424;2022-12-10T16:02:54;59.53;;;26.13;;
23470;SDS011;11908;50.806;4.424;2022-12-10T16:05:27;57.75;;;27.35;;
23470;SDS011;11908;50.806;4.424;2022-12-10T16:07:55;51.30;;;25.45;;
23470;SDS011;11908;50.806;4.424;2022-12-10T16:10:23;58.15;;;26.30;;
23470;SDS011;11908;50.806;4.424;2022-12-10T16:12:55;53.22;;;24.45;;
23470;SDS011;11908;50.806;4.424;2022-12-10T16:15:25;50.80;;;24.48;;
23470;SDS011;11908;50.806;4.424;2022-12-10T16:17:53;58.85;;;25.33;;
23470;SDS011;11908;50.806;4.424;2022-12-10T16:20:24;58.78;;;26.55;;
23470;SDS011;11908;50.806;4.424;2022-12-10T16:22:51;56.50;;;25.48;;
23470;SDS011;11908;50.806;4.424;2022-12-10T16:25:21;55.97;;;23.67;;
23470;SDS011;11908;50.806;4.424;2022-12-10T16:27:48;55.85;;;26.05;;
23470;SDS011;11908;50.806;4.424;2022-12-10T16:30:19;55.35;;;25.42;;
23470;SDS011;11908;50.806;4.424;2022-12-10T16:33:06;60.00;;;25.75;;
23470;SDS011;11908;50.806;4.424;2022-12-10T16:35:32;63.08;;;28.70;;
23470;SDS011;11908;50.806;4.424;2022-12-10T16:37:58;62.97;;;27.85;;
23470;SDS011;11908;50.806;4.424;2022-12-10T16:40:25;54.92;;;25.17;;
23470;SDS011;11908;50.806;4.424;2022-12-10T16:42:53;60.72;;;26.63;;